Terminal Aerodrome Forecast
Issued by NWS Wilmington, NC

Home | Current Version | Previous Version | Text Only | Print | Product List | Glossary On
Versions: 1 2 3 4 5 6 7 8 9 10 11 12 13
000
FTUS42 KILM 201735 AAA
TAFFLO
TAF AMD
KFLO 201735Z 2018/2118 10004KT P6SM SCT050
     FM210400 VRB03KT 4SM BR SCT250
      TEMPO 2108/2112 1/2SM FG BKN002
     FM211300 04002KT P6SM SCT020 SCT060=

USA.gov is the U.S. government's official web portal to all federal, state and local government web resources and services.